sensor_id;sensor_type;location;lat;lon;timestamp;pressure;altitude;pressure_sealevel;temperature;humidity
17607;BME280;69222;52.242;20.980;2024-02-23T00:02:05;98347.72;;;8.88;66.75
17607;BME280;69222;52.242;20.980;2024-02-23T00:04:35;98339.22;;;8.86;66.41
17607;BME280;69222;52.242;20.980;2024-02-23T00:07:04;98340.22;;;8.82;66.67
17607;BME280;69222;52.242;20.980;2024-02-23T00:09:32;98341.09;;;8.81;66.52
17607;BME280;69222;52.242;20.980;2024-02-23T00:12:00;98335.97;;;8.81;67.24
17607;BME280;69222;52.242;20.980;2024-02-23T00:14:30;98345.28;;;8.83;67.24
17607;BME280;69222;52.242;20.980;2024-02-23T00:16:59;98332.41;;;8.85;66.70
17607;BME280;69222;52.242;20.980;2024-02-23T00:19:30;98338.44;;;8.84;66.38
17607;BME280;69222;52.242;20.980;2024-02-23T00:21:58;98332.44;;;8.83;67.48
17607;BME280;69222;52.242;20.980;2024-02-23T00:24:27;98336.72;;;8.84;67.07
17607;BME280;69222;52.242;20.980;2024-02-23T00:26:55;98340.06;;;8.86;66.85
17607;BME280;69222;52.242;20.980;2024-02-23T00:29:23;98330.63;;;8.87;67.10
17607;BME280;69222;52.242;20.980;2024-02-23T00:31:52;98330.59;;;8.88;66.68
17607;BME280;69222;52.242;20.980;2024-02-23T00:34:20;98336.63;;;8.87;67.32
17607;BME280;69222;52.242;20.980;2024-02-23T00:36:49;98331.47;;;8.87;67.34
17607;BME280;69222;52.242;20.980;2024-02-23T00:39:17;98334.00;;;8.89;67.13
17607;BME280;69222;52.242;20.980;2024-02-23T00:41:45;98329.69;;;8.89;66.79
17607;BME280;69222;52.242;20.980;2024-02-23T00:44:13;98326.34;;;8.87;66.96
17607;BME280;69222;52.242;20.980;2024-02-23T00:46:41;98322.91;;;8.87;66.97
17607;BME280;69222;52.242;20.980;2024-02-23T00:49:10;98321.25;;;8.86;67.47
17607;BME280;69222;52.242;20.980;2024-02-23T00:51:38;98309.19;;;8.88;67.60
17607;BME280;69222;52.242;20.980;2024-02-23T00:54:06;98315.13;;;8.90;67.42
17607;BME280;69222;52.242;20.980;2024-02-23T00:56:34;98315.22;;;8.87;67.71
17607;BME280;69222;52.242;20.980;2024-02-23T00:59:16;98310.94;;;8.87;66.92
17607;BME280;69222;52.242;20.980;2024-02-23T01:01:45;98304.94;;;8.87;67.72
17607;BME280;69222;52.242;20.980;2024-02-23T01:04:14;98291.31;;;8.85;67.24
17607;BME280;69222;52.242;20.980;2024-02-23T01:06:42;98293.88;;;8.85;67.83
17607;BME280;69222;52.242;20.980;2024-02-23T01:09:10;98296.56;;;8.82;67.86
17607;BME280;69222;52.242;20.980;2024-02-23T01:11:38;98283.72;;;8.82;67.90
17607;BME280;69222;52.242;20.980;2024-02-23T01:14:06;98299.19;;;8.80;67.45
17607;BME280;69222;52.242;20.980;2024-02-23T01:16:34;98285.47;;;8.80;68.00
17607;BME280;69222;52.242;20.980;2024-02-23T01:19:02;98288.03;;;8.80;68.23
17607;BME280;69222;52.242;20.980;2024-02-23T01:21:32;98285.53;;;8.78;68.11
17607;BME280;69222;52.242;20.980;2024-02-23T01:24:00;98292.41;;;8.78;68.05
17607;BME280;69222;52.242;20.980;2024-02-23T01:26:28;98283.03;;;8.77;68.05
17607;BME280;69222;52.242;20.980;2024-02-23T01:28:56;98274.53;;;8.75;68.61
17607;BME280;69222;52.242;20.980;2024-02-23T01:31:24;98278.00;;;8.74;68.66
17607;BME280;69222;52.242;20.980;2024-02-23T01:34:03;98292.56;;;8.73;68.41
17607;BME280;69222;52.242;20.980;2024-02-23T01:36:40;98285.72;;;8.72;68.33
17607;BME280;69222;52.242;20.980;2024-02-23T01:39:09;98286.56;;;8.73;68.89
17607;BME280;69222;52.242;20.980;2024-02-23T01:41:37;98282.22;;;8.75;68.78
17607;BME280;69222;52.242;20.980;2024-02-23T01:44:06;98286.47;;;8.76;68.59
17607;BME280;69222;52.242;20.980;2024-02-23T01:46:34;98289.84;;;8.78;68.68
17607;BME280;69222;52.242;20.980;2024-02-23T01:49:02;98296.56;;;8.82;69.01
17607;BME280;69222;52.242;20.980;2024-02-23T01:51:31;98286.28;;;8.82;68.50
17607;BME280;69222;52.242;20.980;2024-02-23T01:54:01;98292.25;;;8.82;68.98
17607;BME280;69222;52.242;20.980;2024-02-23T01:56:30;98277.75;;;8.81;68.89
17607;BME280;69222;52.242;20.980;2024-02-23T01:58:59;98288.91;;;8.80;68.80
17607;BME280;69222;52.242;20.980;2024-02-23T02:01:30;98274.34;;;8.81;68.98
17607;BME280;69222;52.242;20.980;2024-02-23T02:03:58;98264.00;;;8.82;68.76
17607;BME280;69222;52.242;20.980;2024-02-23T02:06:26;98284.59;;;8.81;69.14
17607;BME280;69222;52.242;20.980;2024-02-23T02:08:54;98286.22;;;8.83;68.84
17607;BME280;69222;52.242;20.980;2024-02-23T02:11:24;98276.81;;;8.84;68.71
17607;BME280;69222;52.242;20.980;2024-02-23T02:13:53;98271.78;;;8.81;69.32
17607;BME280;69222;52.242;20.980;2024-02-23T02:16:21;98263.97;;;8.84;69.73
17607;BME280;69222;52.242;20.980;2024-02-23T02:18:52;98262.25;;;8.84;69.76
17607;BME280;69222;52.242;20.980;2024-02-23T02:21:20;98265.63;;;8.85;69.28
17607;BME280;69222;52.242;20.980;2024-02-23T02:23:51;98263.00;;;8.86;69.75
17607;BME280;69222;52.242;20.980;2024-02-23T02:26:20;98257.03;;;8.86;69.61
17607;BME280;69222;52.242;20.980;2024-02-23T02:28:49;98250.22;;;8.85;69.35
17607;BME280;69222;52.242;20.980;2024-02-23T02:31:17;98255.47;;;8.82;69.72
17607;BME280;69222;52.242;20.980;2024-02-23T02:33:45;98257.88;;;8.86;70.15
17607;BME280;69222;52.242;20.980;2024-02-23T02:36:14;98251.00;;;8.87;69.68
17607;BME280;69222;52.242;20.980;2024-02-23T02:38:43;98252.69;;;8.88;69.46
17607;BME280;69222;52.242;20.980;2024-02-23T02:41:11;98252.69;;;8.88;69.77
17607;BME280;69222;52.242;20.980;2024-02-23T02:43:39;98255.13;;;8.91;69.72
17607;BME280;69222;52.242;20.980;2024-02-23T02:46:08;98250.88;;;8.91;70.13
17607;BME280;69222;52.242;20.980;2024-02-23T02:48:36;98247.34;;;8.94;70.18
17607;BME280;69222;52.242;20.980;2024-02-23T02:51:04;98251.69;;;8.92;70.19
17607;BME280;69222;52.242;20.980;2024-02-23T02:53:32;98260.25;;;8.92;69.84
17607;BME280;69222;52.242;20.980;2024-02-23T02:56:00;98252.53;;;8.92;70.26
17607;BME280;69222;52.242;20.980;2024-02-23T02:58:28;98254.28;;;8.92;69.83
17607;BME280;69222;52.242;20.980;2024-02-23T03:00:58;98254.31;;;8.90;70.47
17607;BME280;69222;52.242;20.980;2024-02-23T03:03:29;98259.34;;;8.93;69.87
17607;BME280;69222;52.242;20.980;2024-02-23T03:05:57;98253.38;;;8.93;70.38
17607;BME280;69222;52.242;20.980;2024-02-23T03:08:25;98255.94;;;8.93;69.90
17607;BME280;69222;52.242;20.980;2024-02-23T03:10:55;98260.97;;;8.96;70.42
17607;BME280;69222;52.242;20.980;2024-02-23T03:13:26;98257.47;;;8.99;70.08
17607;BME280;69222;52.242;20.980;2024-02-23T03:15:54;98266.88;;;8.98;70.52
17607;BME280;69222;52.242;20.980;2024-02-23T03:18:22;98267.69;;;9.00;71.13
17607;BME280;69222;52.242;20.980;2024-02-23T03:20:51;98273.72;;;8.99;71.54
17607;BME280;69222;52.242;20.980;2024-02-23T03:23:19;98270.25;;;9.00;71.45
17607;BME280;69222;52.242;20.980;2024-02-23T03:25:47;98272.03;;;8.98;72.54
17607;BME280;69222;52.242;20.980;2024-02-23T03:28:15;98275.50;;;8.97;72.91
17607;BME280;69222;52.242;20.980;2024-02-23T03:30:43;98286.66;;;8.96;73.45
17607;BME280;69222;52.242;20.980;2024-02-23T03:33:11;98293.56;;;8.94;73.78
17607;BME280;69222;52.242;20.980;2024-02-23T03:35:39;98287.66;;;8.92;74.76
17607;BME280;69222;52.242;20.980;2024-02-23T03:38:09;98291.97;;;8.91;75.32
17607;BME280;69222;52.242;20.980;2024-02-23T03:40:37;98289.44;;;8.90;75.86
17607;BME280;69222;52.242;20.980;2024-02-23T03:43:05;98284.38;;;8.87;76.48
17607;BME280;69222;52.242;20.980;2024-02-23T03:45:33;98282.88;;;8.81;77.01
17607;BME280;69222;52.242;20.980;2024-02-23T03:48:03;98285.47;;;8.80;77.45
17607;BME280;69222;52.242;20.980;2024-02-23T03:50:32;98294.13;;;8.77;77.73
17607;BME280;69222;52.242;20.980;2024-02-23T03:53:00;98302.69;;;8.78;77.92
17607;BME280;69222;52.242;20.980;2024-02-23T03:55:29;98294.97;;;8.78;78.19
17607;BME280;69222;52.242;20.980;2024-02-23T03:57:57;98313.84;;;8.77;78.44
17607;BME280;69222;52.242;20.980;2024-02-23T04:00:25;98304.41;;;8.77;78.38
17607;BME280;69222;52.242;20.980;2024-02-23T04:02:54;98307.97;;;8.73;79.21
17607;BME280;69222;52.242;20.980;2024-02-23T04:05:24;98313.22;;;8.68;79.74
17607;BME280;69222;52.242;20.980;2024-02-23T04:07:52;98317.59;;;8.66;80.77
17607;BME280;69222;52.242;20.980;2024-02-23T04:10:20;98318.50;;;8.65;80.03
17607;BME280;69222;52.242;20.980;2024-02-23T04:12:49;98316.78;;;8.64;80.64
17607;BME280;69222;52.242;20.980;2024-02-23T04:15:17;98323.72;;;8.62;81.23
17607;BME280;69222;52.242;20.980;2024-02-23T04:17:46;98322.88;;;8.62;81.13
17607;BME280;69222;52.242;20.980;2024-02-23T04:20:14;98326.28;;;8.62;81.08
17607;BME280;69222;52.242;20.980;2024-02-23T04:22:42;98316.09;;;8.59;81.54
17607;BME280;69222;52.242;20.980;2024-02-23T04:25:10;98315.25;;;8.59;82.01
17607;BME280;69222;52.242;20.980;2024-02-23T04:27:38;98326.38;;;8.59;82.18
17607;BME280;69222;52.242;20.980;2024-02-23T04:30:09;98329.03;;;8.56;82.29
17607;BME280;69222;52.242;20.980;2024-02-23T04:32:38;98328.22;;;8.54;82.56
17607;BME280;69222;52.242;20.980;2024-02-23T04:35:08;98338.50;;;8.54;83.18
17607;BME280;69222;52.242;20.980;2024-02-23T04:37:36;98330.75;;;8.56;83.35
17607;BME280;69222;52.242;20.980;2024-02-23T04:40:05;98332.50;;;8.55;83.28
17607;BME280;69222;52.242;20.980;2024-02-23T04:42:33;98329.13;;;8.53;83.53
17607;BME280;69222;52.242;20.980;2024-02-23T04:45:01;98333.34;;;8.54;83.22
17607;BME280;69222;52.242;20.980;2024-02-23T04:47:30;98328.22;;;8.54;83.24
17607;BME280;69222;52.242;20.980;2024-02-23T04:49:59;98334.09;;;8.58;84.30
17607;BME280;69222;52.242;20.980;2024-02-23T04:52:27;98338.31;;;8.60;84.04
17607;BME280;69222;52.242;20.980;2024-02-23T04:54:55;98347.75;;;8.60;83.97
17607;BME280;69222;52.242;20.980;2024-02-23T04:57:23;98354.63;;;8.58;83.87
17607;BME280;69222;52.242;20.980;2024-02-23T04:59:51;98353.81;;;8.57;84.65
17607;BME280;69222;52.242;20.980;2024-02-23T05:02:19;98355.59;;;8.55;84.78
17607;BME280;69222;52.242;20.980;2024-02-23T05:04:48;98354.84;;;8.52;84.87
17607;BME280;69222;52.242;20.980;2024-02-23T05:07:16;98363.47;;;8.49;84.55
17607;BME280;69222;52.242;20.980;2024-02-23T05:09:44;98365.13;;;8.50;85.40
17607;BME280;69222;52.242;20.980;2024-02-23T05:12:12;98363.47;;;8.49;85.09
17607;BME280;69222;52.242;20.980;2024-02-23T05:14:40;98361.06;;;8.44;84.96
17607;BME280;69222;52.242;20.980;2024-02-23T05:17:08;98357.72;;;8.41;85.71
17607;BME280;69222;52.242;20.980;2024-02-23T05:19:36;98369.66;;;8.42;86.36
17607;BME280;69222;52.242;20.980;2024-02-23T05:22:05;98369.75;;;8.39;86.29
17607;BME280;69222;52.242;20.980;2024-02-23T05:24:33;98380.84;;;8.39;86.47
17607;BME280;69222;52.242;20.980;2024-02-23T05:27:01;98374.06;;;8.37;87.39
17607;BME280;69222;52.242;20.980;2024-02-23T05:29:29;98380.03;;;8.39;87.85
17607;BME280;69222;52.242;20.980;2024-02-23T05:31:57;98376.66;;;8.37;88.26
17607;BME280;69222;52.242;20.980;2024-02-23T05:34:25;98388.63;;;8.36;88.54
17607;BME280;69222;52.242;20.980;2024-02-23T05:36:53;98383.53;;;8.35;88.17
17607;BME280;69222;52.242;20.980;2024-02-23T05:39:23;98390.47;;;8.33;88.82
17607;BME280;69222;52.242;20.980;2024-02-23T05:41:51;98387.06;;;8.32;89.17
17607;BME280;69222;52.242;20.980;2024-02-23T05:44:19;98389.63;;;8.32;88.79
17607;BME280;69222;52.242;20.980;2024-02-23T05:46:49;98399.13;;;8.29;89.30
17607;BME280;69222;52.242;20.980;2024-02-23T05:49:17;98407.66;;;8.29;89.97
17607;BME280;69222;52.242;20.980;2024-02-23T05:51:45;98401.69;;;8.29;90.37
17607;BME280;69222;52.242;20.980;2024-02-23T05:54:13;98415.38;;;8.28;90.53
17607;BME280;69222;52.242;20.980;2024-02-23T05:56:43;98402.56;;;8.28;90.78
17607;BME280;69222;52.242;20.980;2024-02-23T05:59:12;98395.84;;;8.23;91.31
17607;BME280;69222;52.242;20.980;2024-02-23T06:01:40;98414.59;;;8.26;91.44
17607;BME280;69222;52.242;20.980;2024-02-23T06:04:08;98410.44;;;8.21;91.58
17607;BME280;69222;52.242;20.980;2024-02-23T06:06:36;98429.09;;;8.27;91.24
17607;BME280;69222;52.242;20.980;2024-02-23T06:09:04;98435.13;;;8.26;92.19
17607;BME280;69222;52.242;20.980;2024-02-23T06:11:32;98435.16;;;8.24;92.53
17607;BME280;69222;52.242;20.980;2024-02-23T06:14:02;98431.75;;;8.23;92.83
17607;BME280;69222;52.242;20.980;2024-02-23T06:16:30;98437.69;;;8.26;93.00
17607;BME280;69222;52.242;20.980;2024-02-23T06:18:58;98435.97;;;8.26;93.53
17607;BME280;69222;52.242;20.980;2024-02-23T06:21:27;98437.72;;;8.24;93.30
17607;BME280;69222;52.242;20.980;2024-02-23T06:23:55;98446.22;;;8.26;93.41
17607;BME280;69222;52.242;20.980;2024-02-23T06:26:23;98447.97;;;8.26;93.41
17607;BME280;69222;52.242;20.980;2024-02-23T06:28:52;98448.81;;;8.24;94.14
17607;BME280;69222;52.242;20.980;2024-02-23T06:31:21;98444.56;;;8.25;93.75
17607;BME280;69222;52.242;20.980;2024-02-23T06:33:49;98456.41;;;8.29;94.17
17607;BME280;69222;52.242;20.980;2024-02-23T06:36:18;98457.25;;;8.30;94.37
17607;BME280;69222;52.242;20.980;2024-02-23T06:38:46;98463.22;;;8.30;94.99
17607;BME280;69222;52.242;20.980;2024-02-23T06:41:14;98470.78;;;8.35;94.86
17607;BME280;69222;52.242;20.980;2024-02-23T06:43:42;98467.34;;;8.36;94.69
17607;BME280;69222;52.242;20.980;2024-02-23T06:46:10;98470.75;;;8.38;94.99
17607;BME280;69222;52.242;20.980;2024-02-23T06:48:40;98472.41;;;8.39;95.18
17607;BME280;69222;52.242;20.980;2024-02-23T06:51:08;98479.25;;;8.40;94.68
17607;BME280;69222;52.242;20.980;2024-02-23T06:53:37;98473.22;;;8.41;95.12
17607;BME280;69222;52.242;20.980;2024-02-23T06:56:06;98472.31;;;8.42;94.35
17607;BME280;69222;52.242;20.980;2024-02-23T06:58:34;98477.47;;;8.42;94.66
17607;BME280;69222;52.242;20.980;2024-02-23T07:01:03;98484.25;;;8.44;95.10
17607;BME280;69222;52.242;20.980;2024-02-23T07:03:32;98490.22;;;8.45;94.38
17607;BME280;69222;52.242;20.980;2024-02-23T07:06:04;98493.69;;;8.42;95.09
17607;BME280;69222;52.242;20.980;2024-02-23T07:08:32;98492.03;;;8.41;94.54
17607;BME280;69222;52.242;20.980;2024-02-23T07:11:00;98502.25;;;8.43;94.87
17607;BME280;69222;52.242;20.980;2024-02-23T07:13:28;98497.97;;;8.43;95.66
17607;BME280;69222;52.242;20.980;2024-02-23T07:15:57;98514.13;;;8.47;94.89
17607;BME280;69222;52.242;20.980;2024-02-23T07:18:26;98509.00;;;8.47;94.54
17607;BME280;69222;52.242;20.980;2024-02-23T07:20:54;98509.84;;;8.46;95.14
17607;BME280;69222;52.242;20.980;2024-02-23T07:23:23;98519.22;;;8.49;95.92
17607;BME280;69222;52.242;20.980;2024-02-23T07:25:52;98522.63;;;8.49;95.15
17607;BME280;69222;52.242;20.980;2024-02-23T07:28:20;98525.16;;;8.51;95.12
17607;BME280;69222;52.242;20.980;2024-02-23T07:30:50;98523.44;;;8.51;96.13
17607;BME280;69222;52.242;20.980;2024-02-23T07:33:19;98524.22;;;8.53;95.56
17607;BME280;69222;52.242;20.980;2024-02-23T07:35:48;98527.59;;;8.55;95.69
17607;BME280;69222;52.242;20.980;2024-02-23T07:38:16;98531.81;;;8.56;95.55
17607;BME280;69222;52.242;20.980;2024-02-23T07:40:46;98525.84;;;8.56;95.79
17607;BME280;69222;52.242;20.980;2024-02-23T07:43:14;98530.06;;;8.58;95.38
17607;BME280;69222;52.242;20.980;2024-02-23T07:45:42;98539.47;;;8.58;95.25
17607;BME280;69222;52.242;20.980;2024-02-23T07:48:10;98538.63;;;8.57;95.61
17607;BME280;69222;52.242;20.980;2024-02-23T07:50:38;98550.63;;;8.57;95.13
17607;BME280;69222;52.242;20.980;2024-02-23T07:53:07;98548.97;;;8.54;95.56
17607;BME280;69222;52.242;20.980;2024-02-23T07:55:35;98550.72;;;8.54;95.70
17607;BME280;69222;52.242;20.980;2024-02-23T07:58:04;98560.06;;;8.56;95.50
17607;BME280;69222;52.242;20.980;2024-02-23T08:00:32;98565.16;;;8.58;96.04
17607;BME280;69222;52.242;20.980;2024-02-23T08:03:01;98565.13;;;8.59;95.55
17607;BME280;69222;52.242;20.980;2024-02-23T08:05:29;98565.97;;;8.60;95.96
17607;BME280;69222;52.242;20.980;2024-02-23T08:07:57;98577.16;;;8.57;96.03
17607;BME280;69222;52.242;20.980;2024-02-23T08:10:25;98573.78;;;8.55;96.74
17607;BME280;69222;52.242;20.980;2024-02-23T08:12:53;98578.09;;;8.55;97.65
17607;BME280;69222;52.242;20.980;2024-02-23T08:15:23;98583.25;;;8.53;98.15
17607;BME280;69222;52.242;20.980;2024-02-23T08:17:51;98579.91;;;8.51;98.65
17607;BME280;69222;52.242;20.980;2024-02-23T08:20:19;98584.19;;;8.51;98.72
17607;BME280;69222;52.242;20.980;2024-02-23T08:22:48;98577.22;;;8.54;99.11
17607;BME280;69222;52.242;20.980;2024-02-23T08:25:16;98590.88;;;8.56;99.18
17607;BME280;69222;52.242;20.980;2024-02-23T08:27:44;98588.31;;;8.56;98.39
17607;BME280;69222;52.242;20.980;2024-02-23T08:30:13;98594.34;;;8.55;98.45
17607;BME280;69222;52.242;20.980;2024-02-23T08:32:43;98594.28;;;8.57;98.16
17607;BME280;69222;52.242;20.980;2024-02-23T08:35:11;98594.16;;;8.61;99.86
17607;BME280;69222;52.242;20.980;2024-02-23T08:37:40;98592.31;;;8.66;98.41
17607;BME280;69222;52.242;20.980;2024-02-23T08:40:10;98602.53;;;8.68;97.85
17607;BME280;69222;52.242;20.980;2024-02-23T08:42:38;98599.84;;;8.73;98.31
17607;BME280;69222;52.242;20.980;2024-02-23T08:45:07;98608.34;;;8.75;98.61
17607;BME280;69222;52.242;20.980;2024-02-23T08:47:36;98617.66;;;8.79;98.55
17607;BME280;69222;52.242;20.980;2024-02-23T08:50:07;98616.00;;;8.76;98.50
17607;BME280;69222;52.242;20.980;2024-02-23T08:52:35;98623.69;;;8.78;98.25
17607;BME280;69222;52.242;20.980;2024-02-23T08:55:03;98625.41;;;8.77;98.01
17607;BME280;69222;52.242;20.980;2024-02-23T08:57:31;98627.03;;;8.80;98.26
17607;BME280;69222;52.242;20.980;2024-02-23T08:59:59;98625.28;;;8.82;98.09
17607;BME280;69222;52.242;20.980;2024-02-23T09:02:27;98638.81;;;8.87;97.98
17607;BME280;69222;52.242;20.980;2024-02-23T09:04:56;98635.28;;;8.91;98.09
17607;BME280;69222;52.242;20.980;2024-02-23T09:07:25;98633.44;;;8.96;97.71
17607;BME280;69222;52.242;20.980;2024-02-23T09:09:54;98640.19;;;9.00;97.89
17607;BME280;69222;52.242;20.980;2024-02-23T09:12:23;98634.88;;;9.06;97.93
17607;BME280;69222;52.242;20.980;2024-02-23T09:14:52;98636.34;;;9.15;98.09
17607;BME280;69222;52.242;20.980;2024-02-23T09:17:20;98649.06;;;9.19;97.06
17607;BME280;69222;52.242;20.980;2024-02-23T09:19:49;98644.50;;;9.29;97.60
17607;BME280;69222;52.242;20.980;2024-02-23T09:22:17;98649.41;;;9.37;95.98
17607;BME280;69222;52.242;20.980;2024-02-23T09:24:54;98648.44;;;9.41;95.92
17607;BME280;69222;52.242;20.980;2024-02-23T09:27:23;98650.94;;;9.44;95.14
17607;BME280;69222;52.242;20.980;2024-02-23T09:29:51;98660.22;;;9.48;95.73
17607;BME280;69222;52.242;20.980;2024-02-23T09:32:19;98654.09;;;9.52;95.79
17607;BME280;69222;52.242;20.980;2024-02-23T09:34:48;98657.16;;;9.65;95.33
17607;BME280;69222;52.242;20.980;2024-02-23T09:37:15;98657.09;;;9.66;94.79
17607;BME280;69222;52.242;20.980;2024-02-23T09:39:43;98663.75;;;9.74;95.24
17607;BME280;69222;52.242;20.980;2024-02-23T09:42:13;98667.00;;;9.79;94.63
17607;BME280;69222;52.242;20.980;2024-02-23T09:44:44;98672.22;;;9.77;94.55
17607;BME280;69222;52.242;20.980;2024-02-23T09:47:13;98672.28;;;9.76;94.04
17607;BME280;69222;52.242;20.980;2024-02-23T09:49:41;98671.47;;;9.74;93.51
17607;BME280;69222;52.242;20.980;2024-02-23T09:52:12;98679.25;;;9.72;94.26
17607;BME280;69222;52.242;20.980;2024-02-23T09:54:40;98682.69;;;9.71;94.82
17607;BME280;69222;52.242;20.980;2024-02-23T09:57:09;98683.53;;;9.72;94.75
17607;BME280;69222;52.242;20.980;2024-02-23T09:59:39;98690.47;;;9.70;94.14
17607;BME280;69222;52.242;20.980;2024-02-23T10:02:09;98696.59;;;9.65;94.57
17607;BME280;69222;52.242;20.980;2024-02-23T10:04:39;98685.53;;;9.62;94.58
17607;BME280;69222;52.242;20.980;2024-02-23T10:07:07;98691.56;;;9.61;94.62
17607;BME280;69222;52.242;20.980;2024-02-23T10:09:35;98683.84;;;9.61;95.05
17607;BME280;69222;52.242;20.980;2024-02-23T10:12:04;98687.16;;;9.64;94.75
17607;BME280;69222;52.242;20.980;2024-02-23T10:14:32;98685.41;;;9.66;95.30
17607;BME280;69222;52.242;20.980;2024-02-23T10:17:02;98696.50;;;9.68;95.08
17607;BME280;69222;52.242;20.980;2024-02-23T10:19:31;98706.66;;;9.72;95.28
17607;BME280;69222;52.242;20.980;2024-02-23T10:22:02;98704.00;;;9.75;95.20
17607;BME280;69222;52.242;20.980;2024-02-23T10:24:30;98710.81;;;9.77;95.29
17607;BME280;69222;52.242;20.980;2024-02-23T10:27:00;98708.19;;;9.79;95.98
17607;BME280;69222;52.242;20.980;2024-02-23T10:29:28;98711.47;;;9.84;95.30
17607;BME280;69222;52.242;20.980;2024-02-23T10:31:57;98717.41;;;9.86;94.19
17607;BME280;69222;52.242;20.980;2024-02-23T10:34:28;98715.72;;;9.85;94.44
17607;BME280;69222;52.242;20.980;2024-02-23T10:36:57;98719.97;;;9.86;94.59
17607;BME280;69222;52.242;20.980;2024-02-23T10:39:28;98722.53;;;9.86;95.09
17607;BME280;69222;52.242;20.980;2024-02-23T10:41:58;98728.59;;;9.85;95.22
17607;BME280;69222;52.242;20.980;2024-02-23T10:44:28;98738.88;;;9.85;94.47
17607;BME280;69222;52.242;20.980;2024-02-23T10:46:58;98736.44;;;9.80;94.15
17607;BME280;69222;52.242;20.980;2024-02-23T10:49:28;98734.84;;;9.76;94.93
17607;BME280;69222;52.242;20.980;2024-02-23T10:51:57;98737.41;;;9.76;94.98
17607;BME280;69222;52.242;20.980;2024-02-23T10:54:26;98743.41;;;9.77;95.45
17607;BME280;69222;52.242;20.980;2024-02-23T10:56:54;98744.19;;;9.79;95.51
17607;BME280;69222;52.242;20.980;2024-02-23T10:59:23;98750.16;;;9.81;95.17
17607;BME280;69222;52.242;20.980;2024-02-23T11:01:52;98756.06;;;9.83;95.70
17607;BME280;69222;52.242;20.980;2024-02-23T11:04:24;98758.56;;;9.86;95.12
17607;BME280;69222;52.242;20.980;2024-02-23T11:06:55;98758.53;;;9.87;95.14
17607;BME280;69222;52.242;20.980;2024-02-23T11:09:26;98759.38;;;9.88;94.92
17607;BME280;69222;52.242;20.980;2024-02-23T11:11:55;98761.94;;;9.88;94.73
17607;BME280;69222;52.242;20.980;2024-02-23T11:14:31;98754.22;;;9.88;95.13
17607;BME280;69222;52.242;20.980;2024-02-23T11:17:00;98768.75;;;9.89;94.88
17607;BME280;69222;52.242;20.980;2024-02-23T11:19:35;98770.56;;;9.87;95.19
17607;BME280;69222;52.242;20.980;2024-02-23T11:22:09;98767.13;;;9.86;95.10
17607;BME280;69222;52.242;20.980;2024-02-23T11:24:49;98777.47;;;9.85;95.39
17607;BME280;69222;52.242;20.980;2024-02-23T11:27:24;98777.41;;;9.86;95.07
17607;BME280;69222;52.242;20.980;2024-02-23T11:29:59;98780.78;;;9.88;95.66
17607;BME280;69222;52.242;20.980;2024-02-23T11:32:36;98780.72;;;9.91;96.11
17607;BME280;69222;52.242;20.980;2024-02-23T11:35:06;98778.06;;;9.93;95.40
17607;BME280;69222;52.242;20.980;2024-02-23T11:37:45;98783.13;;;9.96;95.83
17607;BME280;69222;52.242;20.980;2024-02-23T11:40:14;98797.72;;;9.96;95.73
17607;BME280;69222;52.242;20.980;2024-02-23T11:42:42;98795.94;;;9.98;95.76
17607;BME280;69222;52.242;20.980;2024-02-23T11:45:10;98801.97;;;9.97;95.27
17607;BME280;69222;52.242;20.980;2024-02-23T11:47:39;98807.13;;;9.97;95.65
17607;BME280;69222;52.242;20.980;2024-02-23T11:50:08;98807.00;;;10.01;96.14
17607;BME280;69222;52.242;20.980;2024-02-23T11:52:37;98801.75;;;10.04;96.02
17607;BME280;69222;52.242;20.980;2024-02-23T11:55:07;98805.06;;;10.09;95.71
17607;BME280;69222;52.242;20.980;2024-02-23T11:57:36;98813.56;;;10.11;95.51
17607;BME280;69222;52.242;20.980;2024-02-23T12:00:14;98816.97;;;10.12;95.61
17607;BME280;69222;52.242;20.980;2024-02-23T12:02:43;98822.09;;;10.13;95.80
17607;BME280;69222;52.242;20.980;2024-02-23T12:05:11;98828.03;;;10.15;95.74
17607;BME280;69222;52.242;20.980;2024-02-23T12:07:40;98825.38;;;10.19;95.49
17607;BME280;69222;52.242;20.980;2024-02-23T12:10:12;98838.22;;;10.19;95.63
17607;BME280;69222;52.242;20.980;2024-02-23T12:12:41;98837.41;;;10.18;95.38
17607;BME280;69222;52.242;20.980;2024-02-23T12:15:10;98842.59;;;10.16;95.85
17607;BME280;69222;52.242;20.980;2024-02-23T12:17:46;98843.53;;;10.14;95.27
17607;BME280;69222;52.242;20.980;2024-02-23T12:20:15;98841.09;;;10.09;95.43
17607;BME280;69222;52.242;20.980;2024-02-23T12:22:45;98843.66;;;10.09;95.90
17607;BME280;69222;52.242;20.980;2024-02-23T12:25:14;98837.72;;;10.07;95.74
17607;BME280;69222;52.242;20.980;2024-02-23T12:27:43;98844.53;;;10.08;95.31
17607;BME280;69222;52.242;20.980;2024-02-23T12:30:13;98849.59;;;10.11;95.34
17607;BME280;69222;52.242;20.980;2024-02-23T12:32:42;98847.75;;;10.16;96.09
17607;BME280;69222;52.242;20.980;2024-02-23T12:35:11;98842.53;;;10.18;96.08
17607;BME280;69222;52.242;20.980;2024-02-23T12:37:40;98854.41;;;10.24;96.26
17607;BME280;69222;52.242;20.980;2024-02-23T12:40:11;98855.97;;;10.29;96.26
17607;BME280;69222;52.242;20.980;2024-02-23T12:42:41;98857.66;;;10.30;95.52
17607;BME280;69222;52.242;20.980;2024-02-23T12:45:09;98850.78;;;10.31;95.96
17607;BME280;69222;52.242;20.980;2024-02-23T12:47:37;98848.06;;;10.35;95.90
17607;BME280;69222;52.242;20.980;2024-02-23T12:50:07;98861.72;;;10.37;95.87
17607;BME280;69222;52.242;20.980;2024-02-23T12:52:36;98864.31;;;10.37;95.26
17607;BME280;69222;52.242;20.980;2024-02-23T12:55:08;98866.03;;;10.37;95.53
17607;BME280;69222;52.242;20.980;2024-02-23T12:57:36;98859.22;;;10.36;95.60
17607;BME280;69222;52.242;20.980;2024-02-23T13:00:07;98865.16;;;10.38;95.39
17607;BME280;69222;52.242;20.980;2024-02-23T13:02:36;98869.47;;;10.37;95.44
17607;BME280;69222;52.242;20.980;2024-02-23T13:05:04;98866.88;;;10.37;95.05
17607;BME280;69222;52.242;20.980;2024-02-23T13:07:32;98874.66;;;10.36;95.15
17607;BME280;69222;52.242;20.980;2024-02-23T13:10:00;98874.59;;;10.37;95.61